sensor_id;sensor_type;location;lat;lon;timestamp;temperature;humidity
14397;DHT22;50653;47.810;13.022;2023-06-22T00:01:54;23.70;99.90
14397;DHT22;50653;47.810;13.022;2023-06-22T00:04:19;23.70;99.90
14397;DHT22;50653;47.810;13.022;2023-06-22T00:06:45;23.70;99.90
14397;DHT22;50653;47.810;13.022;2023-06-22T00:09:11;23.20;99.90
14397;DHT22;50653;47.810;13.022;2023-06-22T00:11:37;23.40;99.90
14397;DHT22;50653;47.810;13.022;2023-06-22T00:14:04;23.50;99.90
14397;DHT22;50653;47.810;13.022;2023-06-22T00:16:31;23.50;99.90
14397;DHT22;50653;47.810;13.022;2023-06-22T00:18:57;23.50;99.90
14397;DHT22;50653;47.810;13.022;2023-06-22T00:21:28;23.70;99.90
14397;DHT22;50653;47.810;13.022;2023-06-22T00:23:54;23.80;99.90
14397;DHT22;50653;47.810;13.022;2023-06-22T00:26:21;23.60;99.90
14397;DHT22;50653;47.810;13.022;2023-06-22T00:28:47;23.70;99.90
14397;DHT22;50653;47.810;13.022;2023-06-22T00:31:13;23.70;99.90
14397;DHT22;50653;47.810;13.022;2023-06-22T00:33:39;23.80;99.90
14397;DHT22;50653;47.810;13.022;2023-06-22T00:36:05;23.90;99.90
14397;DHT22;50653;47.810;13.022;2023-06-22T00:38:33;23.90;99.90
14397;DHT22;50653;47.810;13.022;2023-06-22T00:41:00;23.20;99.90
14397;DHT22;50653;47.810;13.022;2023-06-22T00:43:26;23.00;99.90
14397;DHT22;50653;47.810;13.022;2023-06-22T00:45:52;23.30;99.90
14397;DHT22;50653;47.810;13.022;2023-06-22T00:48:18;23.50;99.90
14397;DHT22;50653;47.810;13.022;2023-06-22T00:50:44;23.60;99.90
14397;DHT22;50653;47.810;13.022;2023-06-22T00:53:09;23.10;99.90
14397;DHT22;50653;47.810;13.022;2023-06-22T00:55:37;23.30;99.90
14397;DHT22;50653;47.810;13.022;2023-06-22T00:58:05;23.50;99.90
14397;DHT22;50653;47.810;13.022;2023-06-22T01:00:33;23.50;99.90
14397;DHT22;50653;47.810;13.022;2023-06-22T01:02:59;23.50;99.90
14397;DHT22;50653;47.810;13.022;2023-06-22T01:05:25;23.40;99.90
14397;DHT22;50653;47.810;13.022;2023-06-22T01:10:40;22.90;99.90
14397;DHT22;50653;47.810;13.022;2023-06-22T01:15:45;23.20;99.90
14397;DHT22;50653;47.810;13.022;2023-06-22T01:18:13;23.40;99.90
14397;DHT22;50653;47.810;13.022;2023-06-22T01:20:40;23.40;99.90
14397;DHT22;50653;47.810;13.022;2023-06-22T01:26:18;23.00;99.90
14397;DHT22;50653;47.810;13.022;2023-06-22T01:28:48;23.10;99.90
14397;DHT22;50653;47.810;13.022;2023-06-22T01:31:24;23.20;99.90
14397;DHT22;50653;47.810;13.022;2023-06-22T01:33:53;23.40;99.90
14397;DHT22;50653;47.810;13.022;2023-06-22T01:36:20;23.50;99.90
14397;DHT22;50653;47.810;13.022;2023-06-22T01:38:47;23.50;99.90
14397;DHT22;50653;47.810;13.022;2023-06-22T01:41:13;23.40;99.90
14397;DHT22;50653;47.810;13.022;2023-06-22T01:43:39;22.80;99.90
14397;DHT22;50653;47.810;13.022;2023-06-22T01:46:05;22.80;99.90
14397;DHT22;50653;47.810;13.022;2023-06-22T01:48:31;22.80;99.90
14397;DHT22;50653;47.810;13.022;2023-06-22T01:50:57;22.90;99.90
14397;DHT22;50653;47.810;13.022;2023-06-22T01:53:24;22.90;99.90
14397;DHT22;50653;47.810;13.022;2023-06-22T01:55:51;22.90;99.90
14397;DHT22;50653;47.810;13.022;2023-06-22T01:58:20;23.10;99.90
14397;DHT22;50653;47.810;13.022;2023-06-22T02:00:51;22.90;99.90
14397;DHT22;50653;47.810;13.022;2023-06-22T02:03:21;23.10;99.90
14397;DHT22;50653;47.810;13.022;2023-06-22T02:06:04;23.20;99.90
14397;DHT22;50653;47.810;13.022;2023-06-22T02:11:26;22.90;99.90
14397;DHT22;50653;47.810;13.022;2023-06-22T02:13:54;22.40;99.90
14397;DHT22;50653;47.810;13.022;2023-06-22T02:16:21;22.60;99.90
14397;DHT22;50653;47.810;13.022;2023-06-22T02:18:48;22.50;99.90
14397;DHT22;50653;47.810;13.022;2023-06-22T02:21:19;22.20;99.90
14397;DHT22;50653;47.810;13.022;2023-06-22T02:23:46;22.20;99.90
14397;DHT22;50653;47.810;13.022;2023-06-22T02:26:12;22.40;99.90
14397;DHT22;50653;47.810;13.022;2023-06-22T02:28:38;22.50;99.90
14397;DHT22;50653;47.810;13.022;2023-06-22T02:31:04;22.50;99.90
14397;DHT22;50653;47.810;13.022;2023-06-22T02:33:29;22.60;99.90
14397;DHT22;50653;47.810;13.022;2023-06-22T02:35:55;22.50;99.90
14397;DHT22;50653;47.810;13.022;2023-06-22T02:38:21;22.40;99.90
14397;DHT22;50653;47.810;13.022;2023-06-22T02:40:51;22.30;99.90
14397;DHT22;50653;47.810;13.022;2023-06-22T02:43:16;22.20;99.90
14397;DHT22;50653;47.810;13.022;2023-06-22T02:45:43;22.50;99.90
14397;DHT22;50653;47.810;13.022;2023-06-22T02:48:10;22.40;99.90
14397;DHT22;50653;47.810;13.022;2023-06-22T02:50:36;22.30;99.90
14397;DHT22;50653;47.810;13.022;2023-06-22T02:53:02;22.70;99.90
14397;DHT22;50653;47.810;13.022;2023-06-22T02:55:32;22.60;99.90
14397;DHT22;50653;47.810;13.022;2023-06-22T02:57:58;22.50;99.90
14397;DHT22;50653;47.810;13.022;2023-06-22T03:00:26;22.30;99.90
14397;DHT22;50653;47.810;13.022;2023-06-22T03:02:56;22.50;99.90
14397;DHT22;50653;47.810;13.022;2023-06-22T03:05:22;22.70;99.90
14397;DHT22;50653;47.810;13.022;2023-06-22T03:07:48;22.80;99.90
14397;DHT22;50653;47.810;13.022;2023-06-22T03:10:15;22.80;99.90
14397;DHT22;50653;47.810;13.022;2023-06-22T03:12:42;22.90;99.90
14397;DHT22;50653;47.810;13.022;2023-06-22T03:15:10;22.80;99.90
14397;DHT22;50653;47.810;13.022;2023-06-22T03:17:37;22.60;99.90
14397;DHT22;50653;47.810;13.022;2023-06-22T03:20:06;22.20;99.90
14397;DHT22;50653;47.810;13.022;2023-06-22T03:22:39;22.10;99.90
14397;DHT22;50653;47.810;13.022;2023-06-22T03:25:05;21.90;99.90
14397;DHT22;50653;47.810;13.022;2023-06-22T03:27:37;21.70;99.90
14397;DHT22;50653;47.810;13.022;2023-06-22T03:30:03;21.80;99.90
14397;DHT22;50653;47.810;13.022;2023-06-22T03:32:31;22.00;99.90
14397;DHT22;50653;47.810;13.022;2023-06-22T03:34:58;22.20;99.90
14397;DHT22;50653;47.810;13.022;2023-06-22T03:37:25;22.00;99.90
14397;DHT22;50653;47.810;13.022;2023-06-22T03:39:51;21.90;99.90
14397;DHT22;50653;47.810;13.022;2023-06-22T03:42:17;22.00;99.90
14397;DHT22;50653;47.810;13.022;2023-06-22T03:44:43;21.80;99.90
14397;DHT22;50653;47.810;13.022;2023-06-22T03:47:09;22.00;99.90
14397;DHT22;50653;47.810;13.022;2023-06-22T03:49:36;22.10;99.90
14397;DHT22;50653;47.810;13.022;2023-06-22T03:52:02;22.10;99.90
14397;DHT22;50653;47.810;13.022;2023-06-22T03:54:29;22.20;99.90
14397;DHT22;50653;47.810;13.022;2023-06-22T03:56:56;21.80;99.90
14397;DHT22;50653;47.810;13.022;2023-06-22T03:59:21;21.90;99.90
14397;DHT22;50653;47.810;13.022;2023-06-22T04:01:47;22.00;99.90
14397;DHT22;50653;47.810;13.022;2023-06-22T04:04:13;22.00;99.90
14397;DHT22;50653;47.810;13.022;2023-06-22T04:06:38;21.90;99.90
14397;DHT22;50653;47.810;13.022;2023-06-22T04:09:06;22.10;99.90
14397;DHT22;50653;47.810;13.022;2023-06-22T04:11:32;22.40;99.90
14397;DHT22;50653;47.810;13.022;2023-06-22T04:13:57;22.50;99.90
14397;DHT22;50653;47.810;13.022;2023-06-22T04:16:23;22.30;99.90
14397;DHT22;50653;47.810;13.022;2023-06-22T04:18:49;22.30;99.90
14397;DHT22;50653;47.810;13.022;2023-06-22T04:21:14;22.40;99.90
14397;DHT22;50653;47.810;13.022;2023-06-22T04:23:40;22.50;99.90
14397;DHT22;50653;47.810;13.022;2023-06-22T04:26:05;22.40;99.90
14397;DHT22;50653;47.810;13.022;2023-06-22T04:28:31;22.60;99.90
14397;DHT22;50653;47.810;13.022;2023-06-22T04:31:02;22.50;99.90
14397;DHT22;50653;47.810;13.022;2023-06-22T04:33:28;22.50;99.90
14397;DHT22;50653;47.810;13.022;2023-06-22T04:35:57;22.50;99.90
14397;DHT22;50653;47.810;13.022;2023-06-22T04:38:23;22.50;99.90
14397;DHT22;50653;47.810;13.022;2023-06-22T04:40:50;22.40;99.90
14397;DHT22;50653;47.810;13.022;2023-06-22T04:43:16;22.40;99.90
14397;DHT22;50653;47.810;13.022;2023-06-22T04:45:41;22.50;99.90
14397;DHT22;50653;47.810;13.022;2023-06-22T04:48:07;22.70;99.90
14397;DHT22;50653;47.810;13.022;2023-06-22T04:50:36;22.60;99.90
14397;DHT22;50653;47.810;13.022;2023-06-22T04:53:04;22.50;99.90
14397;DHT22;50653;47.810;13.022;2023-06-22T04:55:31;22.70;99.90
14397;DHT22;50653;47.810;13.022;2023-06-22T04:57:57;22.70;99.90
14397;DHT22;50653;47.810;13.022;2023-06-22T05:00:30;22.70;99.90
14397;DHT22;50653;47.810;13.022;2023-06-22T05:02:56;22.70;99.90
14397;DHT22;50653;47.810;13.022;2023-06-22T05:05:23;22.70;99.90
14397;DHT22;50653;47.810;13.022;2023-06-22T05:07:50;22.70;99.90
14397;DHT22;50653;47.810;13.022;2023-06-22T05:10:19;22.60;99.90
14397;DHT22;50653;47.810;13.022;2023-06-22T05:12:46;22.70;99.90
14397;DHT22;50653;47.810;13.022;2023-06-22T05:15:12;22.80;99.90
14397;DHT22;50653;47.810;13.022;2023-06-22T05:17:38;23.00;99.90
14397;DHT22;50653;47.810;13.022;2023-06-22T05:20:09;22.90;99.90
14397;DHT22;50653;47.810;13.022;2023-06-22T05:22:35;22.90;99.90
14397;DHT22;50653;47.810;13.022;2023-06-22T05:25:00;22.90;99.90
14397;DHT22;50653;47.810;13.022;2023-06-22T05:27:26;23.10;99.90
14397;DHT22;50653;47.810;13.022;2023-06-22T05:29:52;23.10;99.70
14397;DHT22;50653;47.810;13.022;2023-06-22T05:32:17;23.10;99.10
14397;DHT22;50653;47.810;13.022;2023-06-22T05:34:44;23.10;98.90
14397;DHT22;50653;47.810;13.022;2023-06-22T05:37:10;23.10;98.70
14397;DHT22;50653;47.810;13.022;2023-06-22T05:39:36;23.10;99.00
14397;DHT22;50653;47.810;13.022;2023-06-22T05:42:05;23.20;99.00
14397;DHT22;50653;47.810;13.022;2023-06-22T05:44:31;23.20;98.60
14397;DHT22;50653;47.810;13.022;2023-06-22T05:46:56;23.20;98.30
14397;DHT22;50653;47.810;13.022;2023-06-22T05:49:22;23.30;97.80
14397;DHT22;50653;47.810;13.022;2023-06-22T05:51:49;23.30;97.60
14397;DHT22;50653;47.810;13.022;2023-06-22T05:54:15;23.30;97.50
14397;DHT22;50653;47.810;13.022;2023-06-22T05:56:43;23.40;97.30
14397;DHT22;50653;47.810;13.022;2023-06-22T05:59:08;23.40;97.40
14397;DHT22;50653;47.810;13.022;2023-06-22T06:01:34;23.40;97.50
14397;DHT22;50653;47.810;13.022;2023-06-22T06:04:02;23.40;97.70
14397;DHT22;50653;47.810;13.022;2023-06-22T06:06:29;23.30;97.80
14397;DHT22;50653;47.810;13.022;2023-06-22T06:08:55;23.40;97.80
14397;DHT22;50653;47.810;13.022;2023-06-22T06:11:21;23.40;97.70
14397;DHT22;50653;47.810;13.022;2023-06-22T06:13:47;23.50;97.60
14397;DHT22;50653;47.810;13.022;2023-06-22T06:16:13;23.40;97.90
14397;DHT22;50653;47.810;13.022;2023-06-22T06:18:38;23.40;97.90
14397;DHT22;50653;47.810;13.022;2023-06-22T06:21:04;23.50;98.00
14397;DHT22;50653;47.810;13.022;2023-06-22T06:23:30;23.50;98.10
14397;DHT22;50653;47.810;13.022;2023-06-22T06:25:56;23.50;98.00
14397;DHT22;50653;47.810;13.022;2023-06-22T06:28:22;23.60;97.80
14397;DHT22;50653;47.810;13.022;2023-06-22T06:30:47;23.60;97.80
14397;DHT22;50653;47.810;13.022;2023-06-22T06:33:13;23.60;97.90
14397;DHT22;50653;47.810;13.022;2023-06-22T06:35:39;23.50;97.80
14397;DHT22;50653;47.810;13.022;2023-06-22T06:38:04;23.60;97.60
14397;DHT22;50653;47.810;13.022;2023-06-22T06:40:30;23.70;97.60
14397;DHT22;50653;47.810;13.022;2023-06-22T06:42:56;23.70;97.50
14397;DHT22;50653;47.810;13.022;2023-06-22T06:45:23;23.70;97.40
14397;DHT22;50653;47.810;13.022;2023-06-22T06:47:52;23.70;97.60
14397;DHT22;50653;47.810;13.022;2023-06-22T06:50:18;23.80;97.60
14397;DHT22;50653;47.810;13.022;2023-06-22T06:52:44;23.80;97.40
14397;DHT22;50653;47.810;13.022;2023-06-22T06:55:10;23.80;97.40
14397;DHT22;50653;47.810;13.022;2023-06-22T06:57:38;23.80;97.60
14397;DHT22;50653;47.810;13.022;2023-06-22T07:00:06;23.90;96.90
14397;DHT22;50653;47.810;13.022;2023-06-22T07:02:35;23.90;96.70
14397;DHT22;50653;47.810;13.022;2023-06-22T07:05:01;23.90;96.40
14397;DHT22;50653;47.810;13.022;2023-06-22T07:07:29;23.90;96.20
14397;DHT22;50653;47.810;13.022;2023-06-22T07:09:55;24.00;96.30
14397;DHT22;50653;47.810;13.022;2023-06-22T07:12:21;24.00;95.70
14397;DHT22;50653;47.810;13.022;2023-06-22T07:14:46;24.10;95.30
14397;DHT22;50653;47.810;13.022;2023-06-22T07:17:12;24.10;95.00
14397;DHT22;50653;47.810;13.022;2023-06-22T07:19:38;24.10;95.00
14397;DHT22;50653;47.810;13.022;2023-06-22T07:22:04;24.10;94.90
14397;DHT22;50653;47.810;13.022;2023-06-22T07:24:30;24.20;95.00
14397;DHT22;50653;47.810;13.022;2023-06-22T07:26:55;24.30;95.20
14397;DHT22;50653;47.810;13.022;2023-06-22T07:29:24;24.30;95.40
14397;DHT22;50653;47.810;13.022;2023-06-22T07:31:50;24.30;95.20
14397;DHT22;50653;47.810;13.022;2023-06-22T07:34:21;24.30;95.50
14397;DHT22;50653;47.810;13.022;2023-06-22T07:36:47;24.40;95.40
14397;DHT22;50653;47.810;13.022;2023-06-22T07:39:13;24.40;95.40
14397;DHT22;50653;47.810;13.022;2023-06-22T07:41:40;24.40;95.10
14397;DHT22;50653;47.810;13.022;2023-06-22T07:44:09;24.40;95.20
14397;DHT22;50653;47.810;13.022;2023-06-22T07:46:35;24.60;95.20
14397;DHT22;50653;47.810;13.022;2023-06-22T07:49:00;24.60;94.80
14397;DHT22;50653;47.810;13.022;2023-06-22T07:51:26;24.70;94.20
14397;DHT22;50653;47.810;13.022;2023-06-22T07:53:52;24.70;93.70
14397;DHT22;50653;47.810;13.022;2023-06-22T07:56:18;24.70;93.80
14397;DHT22;50653;47.810;13.022;2023-06-22T07:58:47;24.70;93.80
14397;DHT22;50653;47.810;13.022;2023-06-22T08:01:14;24.80;93.60
14397;DHT22;50653;47.810;13.022;2023-06-22T08:03:40;24.80;93.60
14397;DHT22;50653;47.810;13.022;2023-06-22T08:06:07;24.80;93.40
14397;DHT22;50653;47.810;13.022;2023-06-22T08:08:35;24.90;93.20
14397;DHT22;50653;47.810;13.022;2023-06-22T08:11:00;24.90;92.90
14397;DHT22;50653;47.810;13.022;2023-06-22T08:13:26;25.10;92.80
14397;DHT22;50653;47.810;13.022;2023-06-22T08:15:51;25.10;92.70
14397;DHT22;50653;47.810;13.022;2023-06-22T08:18:17;25.10;92.80
14397;DHT22;50653;47.810;13.022;2023-06-22T08:20:43;25.20;92.90
14397;DHT22;50653;47.810;13.022;2023-06-22T08:23:08;25.30;92.40
14397;DHT22;50653;47.810;13.022;2023-06-22T08:25:34;25.40;92.20
14397;DHT22;50653;47.810;13.022;2023-06-22T08:28:01;25.60;91.10
14397;DHT22;50653;47.810;13.022;2023-06-22T08:30:27;25.60;90.80
14397;DHT22;50653;47.810;13.022;2023-06-22T08:32:52;25.40;91.30
14397;DHT22;50653;47.810;13.022;2023-06-22T08:35:19;25.60;91.10
14397;DHT22;50653;47.810;13.022;2023-06-22T08:37:46;25.60;90.40
14397;DHT22;50653;47.810;13.022;2023-06-22T08:40:18;25.60;90.30
14397;DHT22;50653;47.810;13.022;2023-06-22T08:42:45;25.50;90.70
14397;DHT22;50653;47.810;13.022;2023-06-22T08:45:12;25.60;90.30
14397;DHT22;50653;47.810;13.022;2023-06-22T08:47:38;25.60;90.50
14397;DHT22;50653;47.810;13.022;2023-06-22T08:50:05;25.70;89.90
14397;DHT22;50653;47.810;13.022;2023-06-22T08:52:31;25.70;89.80
14397;DHT22;50653;47.810;13.022;2023-06-22T08:54:56;26.00;88.80
14397;DHT22;50653;47.810;13.022;2023-06-22T08:57:23;26.20;87.80
14397;DHT22;50653;47.810;13.022;2023-06-22T08:59:49;26.30;87.00
14397;DHT22;50653;47.810;13.022;2023-06-22T09:02:17;26.60;85.70
14397;DHT22;50653;47.810;13.022;2023-06-22T09:04:43;26.30;85.60
14397;DHT22;50653;47.810;13.022;2023-06-22T09:07:09;26.40;86.80
14397;DHT22;50653;47.810;13.022;2023-06-22T09:09:34;26.20;87.10
14397;DHT22;50653;47.810;13.022;2023-06-22T09:12:00;26.20;87.10
14397;DHT22;50653;47.810;13.022;2023-06-22T09:14:25;26.50;87.20
14397;DHT22;50653;47.810;13.022;2023-06-22T09:16:51;26.70;86.90
14397;DHT22;50653;47.810;13.022;2023-06-22T09:19:17;26.80;86.80
14397;DHT22;50653;47.810;13.022;2023-06-22T09:21:42;26.80;86.70
14397;DHT22;50653;47.810;13.022;2023-06-22T09:24:08;26.90;87.00
14397;DHT22;50653;47.810;13.022;2023-06-22T09:26:34;26.90;86.50
14397;DHT22;50653;47.810;13.022;2023-06-22T09:28:59;27.10;86.30
14397;DHT22;50653;47.810;13.022;2023-06-22T09:31:25;26.90;86.00
14397;DHT22;50653;47.810;13.022;2023-06-22T09:33:54;26.90;86.30
14397;DHT22;50653;47.810;13.022;2023-06-22T09:36:23;26.90;86.80
14397;DHT22;50653;47.810;13.022;2023-06-22T09:38:49;26.90;86.70
14397;DHT22;50653;47.810;13.022;2023-06-22T09:41:20;26.80;87.70
14397;DHT22;50653;47.810;13.022;2023-06-22T09:43:46;26.90;87.30
14397;DHT22;50653;47.810;13.022;2023-06-22T09:46:14;27.00;86.60
14397;DHT22;50653;47.810;13.022;2023-06-22T09:48:40;27.20;86.70
14397;DHT22;50653;47.810;13.022;2023-06-22T09:51:06;27.40;86.00
14397;DHT22;50653;47.810;13.022;2023-06-22T09:53:31;27.40;85.70
14397;DHT22;50653;47.810;13.022;2023-06-22T09:55:57;27.30;86.50
14397;DHT22;50653;47.810;13.022;2023-06-22T09:58:23;27.20;86.60
14397;DHT22;50653;47.810;13.022;2023-06-22T10:00:48;27.40;86.70
14397;DHT22;50653;47.810;13.022;2023-06-22T10:03:14;27.50;86.40
14397;DHT22;50653;47.810;13.022;2023-06-22T10:05:40;27.80;86.90
14397;DHT22;50653;47.810;13.022;2023-06-22T10:08:05;28.00;86.10
14397;DHT22;50653;47.810;13.022;2023-06-22T10:10:33;27.90;86.50
14397;DHT22;50653;47.810;13.022;2023-06-22T10:13:07;27.90;86.10
14397;DHT22;50653;47.810;13.022;2023-06-22T10:15:34;28.00;85.90
14397;DHT22;50653;47.810;13.022;2023-06-22T10:17:59;28.10;85.90
14397;DHT22;50653;47.810;13.022;2023-06-22T10:20:25;28.00;85.80
14397;DHT22;50653;47.810;13.022;2023-06-22T10:22:51;27.90;86.00
14397;DHT22;50653;47.810;13.022;2023-06-22T10:25:17;28.20;85.70
14397;DHT22;50653;47.810;13.022;2023-06-22T10:27:43;28.20;85.40
14397;DHT22;50653;47.810;13.022;2023-06-22T10:30:10;27.90;86.20
14397;DHT22;50653;47.810;13.022;2023-06-22T10:32:38;28.20;86.00
14397;DHT22;50653;47.810;13.022;2023-06-22T10:35:05;28.40;84.10
14397;DHT22;50653;47.810;13.022;2023-06-22T10:37:31;28.10;85.00
14397;DHT22;50653;47.810;13.022;2023-06-22T10:39:57;28.10;85.50
14397;DHT22;50653;47.810;13.022;2023-06-22T10:42:23;27.90;86.10
14397;DHT22;50653;47.810;13.022;2023-06-22T10:44:48;28.30;86.10
14397;DHT22;50653;47.810;13.022;2023-06-22T10:47:14;28.50;84.70
14397;DHT22;50653;47.810;13.022;2023-06-22T10:49:40;28.50;84.10
14397;DHT22;50653;47.810;13.022;2023-06-22T10:52:07;28.50;84.10
14397;DHT22;50653;47.810;13.022;2023-06-22T10:54:34;28.50;84.70
14397;DHT22;50653;47.810;13.022;2023-06-22T10:57:01;28.40;85.50
14397;DHT22;50653;47.810;13.022;2023-06-22T10:59:26;28.70;85.30
14397;DHT22;50653;47.810;13.022;2023-06-22T11:01:54;28.80;85.50
14397;DHT22;50653;47.810;13.022;2023-06-22T11:04:20;28.70;85.20
14397;DHT22;50653;47.810;13.022;2023-06-22T11:06:47;28.90;85.80
14397;DHT22;50653;47.810;13.022;2023-06-22T11:09:13;29.20;84.60
14397;DHT22;50653;47.810;13.022;2023-06-22T11:11:44;29.30;84.20
14397;DHT22;50653;47.810;13.022;2023-06-22T11:14:10;29.30;85.00
14397;DHT22;50653;47.810;13.022;2023-06-22T11:16:35;29.20;83.50
14397;DHT22;50653;47.810;13.022;2023-06-22T11:19:01;29.20;84.30
14397;DHT22;50653;47.810;13.022;2023-06-22T11:21:26;29.20;84.40
14397;DHT22;50653;47.810;13.022;2023-06-22T11:23:52;29.20;84.50
14397;DHT22;50653;47.810;13.022;2023-06-22T11:26:18;29.40;83.90
14397;DHT22;50653;47.810;13.022;2023-06-22T11:28:43;29.50;84.80
14397;DHT22;50653;47.810;13.022;2023-06-22T11:31:09;29.50;84.30
14397;DHT22;50653;47.810;13.022;2023-06-22T11:33:35;29.60;85.00
14397;DHT22;50653;47.810;13.022;2023-06-22T11:36:00;29.50;85.30
14397;DHT22;50653;47.810;13.022;2023-06-22T11:38:26;29.90;85.00
14397;DHT22;50653;47.810;13.022;2023-06-22T11:40:52;30.20;84.40
14397;DHT22;50653;47.810;13.022;2023-06-22T11:43:17;30.20;84.40
14397;DHT22;50653;47.810;13.022;2023-06-22T11:45:43;30.20;85.90
14397;DHT22;50653;47.810;13.022;2023-06-22T11:48:08;30.50;83.50
14397;DHT22;50653;47.810;13.022;2023-06-22T11:50:34;30.50;84.70
14397;DHT22;50653;47.810;13.022;2023-06-22T11:53:02;30.00;85.30
14397;DHT22;50653;47.810;13.022;2023-06-22T11:55:29;29.90;85.10
14397;DHT22;50653;47.810;13.022;2023-06-22T11:57:56;29.90;85.20
14397;DHT22;50653;47.810;13.022;2023-06-22T12:00:25;29.90;85.40
14397;DHT22;50653;47.810;13.022;2023-06-22T12:02:51;30.10;85.40
14397;DHT22;50653;47.810;13.022;2023-06-22T12:05:21;30.50;84.60
14397;DHT22;50653;47.810;13.022;2023-06-22T12:07:48;30.40;85.30
14397;DHT22;50653;47.810;13.022;2023-06-22T12:10:14;30.30;85.40
14397;DHT22;50653;47.810;13.022;2023-06-22T12:12:40;30.20;85.80
14397;DHT22;50653;47.810;13.022;2023-06-22T12:15:06;30.30;86.10
14397;DHT22;50653;47.810;13.022;2023-06-22T12:17:34;30.20;85.80
14397;DHT22;50653;47.810;13.022;2023-06-22T12:19:59;30.30;86.50
14397;DHT22;50653;47.810;13.022;2023-06-22T12:22:25;30.40;84.90
14397;DHT22;50653;47.810;13.022;2023-06-22T12:24:51;30.50;84.60
14397;DHT22;50653;47.810;13.022;2023-06-22T12:27:17;30.40;84.20
14397;DHT22;50653;47.810;13.022;2023-06-22T12:29:45;30.70;82.20
14397;DHT22;50653;47.810;13.022;2023-06-22T12:32:11;30.90;82.50
14397;DHT22;50653;47.810;13.022;2023-06-22T12:34:39;30.90;79.60
14397;DHT22;50653;47.810;13.022;2023-06-22T12:37:05;31.20;80.40
14397;DHT22;50653;47.810;13.022;2023-06-22T12:39:34;31.10;78.40
14397;DHT22;50653;47.810;13.022;2023-06-22T12:42:00;31.40;76.40
14397;DHT22;50653;47.810;13.022;2023-06-22T12:44:26;31.50;74.60
14397;DHT22;50653;47.810;13.022;2023-06-22T12:46:51;31.60;74.20
14397;DHT22;50653;47.810;13.022;2023-06-22T12:49:17;31.80;73.30
14397;DHT22;50653;47.810;13.022;2023-06-22T12:51:43;31.60;74.20
14397;DHT22;50653;47.810;13.022;2023-06-22T12:54:10;31.90;71.50
14397;DHT22;50653;47.810;13.022;2023-06-22T12:56:37;32.00;72.20
14397;DHT22;50653;47.810;13.022;2023-06-22T12:59:03;31.80;72.90
14397;DHT22;50653;47.810;13.022;2023-06-22T13:01:30;31.70;74.50
14397;DHT22;50653;47.810;13.022;2023-06-22T13:03:56;31.70;76.40
14397;DHT22;50653;47.810;13.022;2023-06-22T13:06:22;31.70;77.30
14397;DHT22;50653;47.810;13.022;2023-06-22T13:08:47;31.60;78.70
14397;DHT22;50653;47.810;13.022;2023-06-22T13:11:13;31.80;78.20
14397;DHT22;50653;47.810;13.022;2023-06-22T13:13:39;32.20;75.60
14397;DHT22;50653;47.810;13.022;2023-06-22T13:16:05;31.80;76.20
14397;DHT22;50653;47.810;13.022;2023-06-22T13:18:31;32.20;76.10
14397;DHT22;50653;47.810;13.022;2023-06-22T13:20:57;32.20;75.60
14397;DHT22;50653;47.810;13.022;2023-06-22T13:23:23;31.90;76.60
14397;DHT22;50653;47.810;13.022;2023-06-22T13:25:49;32.30;74.50
14397;DHT22;50653;47.810;13.022;2023-06-22T13:28:15;32.40;72.60
14397;DHT22;50653;47.810;13.022;2023-06-22T13:30:42;32.60;72.50
14397;DHT22;50653;47.810;13.022;2023-06-22T13:33:09;32.20;74.70
14397;DHT22;50653;47.810;13.022;2023-06-22T13:35:37;32.10;75.40
14397;DHT22;50653;47.810;13.022;2023-06-22T13:38:03;32.00;75.70
14397;DHT22;50653;47.810;13.022;2023-06-22T13:40:29;32.50;73.60
14397;DHT22;50653;47.810;13.022;2023-06-22T13:42:56;32.60;72.90
14397;DHT22;50653;47.810;13.022;2023-06-22T13:45:22;32.70;71.70
14397;DHT22;50653;47.810;13.022;2023-06-22T13:47:47;32.70;70.90
14397;DHT22;50653;47.810;13.022;2023-06-22T13:50:13;32.70;71.10
14397;DHT22;50653;47.810;13.022;2023-06-22T13:52:39;32.50;70.80
14397;DHT22;50653;47.810;13.022;2023-06-22T13:55:05;32.50;71.20
14397;DHT22;50653;47.810;13.022;2023-06-22T13:57:33;32.70;69.90
14397;DHT22;50653;47.810;13.022;2023-06-22T13:59:59;33.20;67.90
14397;DHT22;50653;47.810;13.022;2023-06-22T14:02:26;33.20;66.70
14397;DHT22;50653;47.810;13.022;2023-06-22T14:04:51;33.30;66.60
14397;DHT22;50653;47.810;13.022;2023-06-22T14:07:17;33.30;66.80
14397;DHT22;50653;47.810;13.022;2023-06-22T14:09:44;33.30;65.60
14397;DHT22;50653;47.810;13.022;2023-06-22T14:12:10;33.40;64.30
14397;DHT22;50653;47.810;13.022;2023-06-22T14:14:36;33.30;64.50
14397;DHT22;50653;47.810;13.022;2023-06-22T14:17:03;33.10;65.80
14397;DHT22;50653;47.810;13.022;2023-06-22T14:19:29;33.10;64.80
14397;DHT22;50653;47.810;13.022;2023-06-22T14:21:55;33.20;63.00
14397;DHT22;50653;47.810;13.022;2023-06-22T14:24:22;33.30;61.70
14397;DHT22;50653;47.810;13.022;2023-06-22T14:26:48;33.30;60.20
14397;DHT22;50653;47.810;13.022;2023-06-22T14:29:14;33.40;60.60
14397;DHT22;50653;47.810;13.022;2023-06-22T14:31:39;33.50;60.90
14397;DHT22;50653;47.810;13.022;2023-06-22T14:34:05;33.60;61.10
14397;DHT22;50653;47.810;13.022;2023-06-22T14:36:31;33.60;61.30
14397;DHT22;50653;47.810;13.022;2023-06-22T14:38:57;33.50;61.20
14397;DHT22;50653;47.810;13.022;2023-06-22T14:41:23;33.40;60.40
14397;DHT22;50653;47.810;13.022;2023-06-22T14:43:50;33.30;61.00
14397;DHT22;50653;47.810;13.022;2023-06-22T14:46:17;33.40;60.90
14397;DHT22;50653;47.810;13.022;2023-06-22T14:48:43;33.40;61.10
14397;DHT22;50653;47.810;13.022;2023-06-22T14:51:09;33.40;61.60
14397;DHT22;50653;47.810;13.022;2023-06-22T14:53:36;33.40;62.60
14397;DHT22;50653;47.810;13.022;2023-06-22T14:56:02;33.60;61.20
14397;DHT22;50653;47.810;13.022;2023-06-22T14:58:31;33.70;60.50
14397;DHT22;50653;47.810;13.022;2023-06-22T15:01:04;33.80;60.00
14397;DHT22;50653;47.810;13.022;2023-06-22T15:03:30;33.90;60.30
14397;DHT22;50653;47.810;13.022;2023-06-22T15:05:58;34.00;60.30
14397;DHT22;50653;47.810;13.022;2023-06-22T15:08:24;34.10;60.20
14397;DHT22;50653;47.810;13.022;2023-06-22T15:10:51;34.20;59.70
14397;DHT22;50653;47.810;13.022;2023-06-22T15:13:17;34.30;59.60
14397;DHT22;50653;47.810;13.022;2023-06-22T15:15:44;34.50;59.30
14397;DHT22;50653;47.810;13.022;2023-06-22T15:18:09;34.70;59.00
14397;DHT22;50653;47.810;13.022;2023-06-22T15:20:35;34.80;58.90
14397;DHT22;50653;47.810;13.022;2023-06-22T15:23:00;35.20;58.60